Terminal Aerodrome Forecast
Issued by NWS Charleston, WV

Current Version | Previous Version | Graphics & Text | Print | Product List | Glossary On
Versions: 1 2 3 4 5 6 7 8 9 10 11 12 13 14 15 16 17 18 19 20 21 22 23 24 25 26
000
FTUS41 KRLX 200500
TAFBKW
TAF
KBKW 200538Z 2006/2106 15011G18KT P6SM SCT012
      TEMPO 2006/2010 15007KT BKN012
     FM201000 15007KT P6SM BKN008
      TEMPO 2010/2013 SCT008
     FM201300 16006KT P6SM BKN015
     FM201500 16006KT P6SM SCT015
     FM201700 16004KT P6SM SCT040
     FM210200 16008G16KT P6SM SCT250=

USA.gov is the U.S. government's official web portal to all federal, state and local government web resources and services.